Time;durP1;ratioP1;P1;durP2;ratioP2;P2;SDS_P1;SDS_P2;PMS_P1;PMS_P2;Temp;Humidity;BMP_temperature;BMP_pressure;BME280_temperature;BME280_humidity;BME280_pressure;Samples;Min_cycle;Max_cycle;Signal;HPM_P1;HPM_P2
2020/12/09 00:00:24;;;;;;;20.25;9.55;;;;;;;;;;5059925;28;20036;-56
2020/12/09 00:02:51;;;;;;;24.10;10.07;;;;;;;;;;5050114;28;20064;-55
2020/12/09 00:05:17;;;;;;;25.33;9.85;;;;;;;;;;5069424;28;20269;-54
2020/12/09 00:07:46;;;;;;;24.63;9.50;;;;;;;;;;5072994;28;20047;-60
2020/12/09 00:10:12;;;;;;;21.10;10.13;;;;;;;;;;5079822;28;20044;-61
2020/12/09 00:12:38;;;;;;;22.35;10.05;;;;;;;;;;5079730;28;20028;-60
2020/12/09 00:15:06;;;;;;;23.45;10.25;;;;;;;;;;5063648;28;20063;-60
2020/12/09 00:17:32;;;;;;;22.50;9.90;;;;;;;;;;5061711;28;20040;-59
2020/12/09 00:19:59;;;;;;;21.42;8.98;;;;;;;;;;5059239;28;20048;-58
2020/12/09 00:22:25;;;;;;;23.75;9.00;;;;;;;;;;5061083;28;20037;-58
2020/12/09 00:24:51;;;;;;;20.00;8.93;;;;;;;;;;5068556;28;20060;-54
2020/12/09 00:27:17;;;;;;;22.42;9.80;;;;;;;;;;5082521;28;20064;-58
2020/12/09 00:29:44;;;;;;;22.27;9.85;;;;;;;;;;5069185;28;20044;-55
2020/12/09 00:32:10;;;;;;;24.40;10.18;;;;;;;;;;5061802;28;20049;-56
2020/12/09 00:34:35;;;;;;;27.83;9.65;;;;;;;;;;5064154;28;20040;-58
2020/12/09 00:37:02;;;;;;;21.13;8.95;;;;;;;;;;5080890;28;20040;-54
2020/12/09 00:39:29;;;;;;;22.35;9.57;;;;;;;;;;5077324;28;20040;-54
2020/12/09 00:41:54;;;;;;;20.48;9.15;;;;;;;;;;5073806;28;20150;-55
2020/12/09 00:44:20;;;;;;;22.00;9.55;;;;;;;;;;5059451;28;20040;-58
2020/12/09 00:46:46;;;;;;;25.05;9.40;;;;;;;;;;5082856;28;20066;-56
2020/12/09 00:49:24;;;;;;;24.75;10.27;;;;;;;;;;5083543;28;20053;-53
2020/12/09 00:51:49;;;;;;;22.42;9.43;;;;;;;;;;5080772;28;20036;-57
2020/12/09 00:54:16;;;;;;;22.77;9.35;;;;;;;;;;5082801;28;20109;-56
2020/12/09 00:56:43;;;;;;;23.38;9.77;;;;;;;;;;5059802;28;20041;-58
2020/12/09 00:59:09;;;;;;;22.67;9.43;;;;;;;;;;5060899;28;20048;-59
2020/12/09 01:01:35;;;;;;;22.33;9.80;;;;;;;;;;5071149;28;20130;-55
2020/12/09 01:04:01;;;;;;;23.50;10.30;;;;;;;;;;5081232;28;20058;-50
2020/12/09 01:06:27;;;;;;;20.52;9.40;;;;;;;;;;5076711;28;20044;-54
2020/12/09 01:08:56;;;;;;;21.27;8.73;;;;;;;;;;5082019;28;20028;-57
2020/12/09 01:11:23;;;;;;;20.65;9.38;;;;;;;;;;5058167;28;20037;-56
2020/12/09 01:13:49;;;;;;;30.15;11.02;;;;;;;;;;5060168;28;20049;-54
2020/12/09 01:16:15;;;;;;;24.05;11.32;;;;;;;;;;5065300;28;20040;-58
2020/12/09 01:18:41;;;;;;;23.83;9.70;;;;;;;;;;5080942;28;20048;-55
2020/12/09 01:21:07;;;;;;;23.17;9.82;;;;;;;;;;5075733;28;20113;-53
2020/12/09 01:23:33;;;;;;;21.55;9.73;;;;;;;;;;5080909;28;20036;-54
2020/12/09 01:25:59;;;;;;;19.92;8.70;;;;;;;;;;5078128;28;20052;-55
2020/12/09 01:28:26;;;;;;;19.90;8.55;;;;;;;;;;5081191;28;20125;-57
2020/12/09 01:30:52;;;;;;;25.05;8.50;;;;;;;;;;5080608;28;20044;-57
2020/12/09 01:33:18;;;;;;;21.05;8.45;;;;;;;;;;5057246;28;20036;-54
2020/12/09 01:35:44;;;;;;;21.23;9.23;;;;;;;;;;5061220;28;20121;-52
2020/12/09 01:38:10;;;;;;;17.88;8.13;;;;;;;;;;5057072;28;20067;-60
2020/12/09 01:40:36;;;;;;;23.45;9.18;;;;;;;;;;5061327;28;20049;-55
2020/12/09 01:43:02;;;;;;;19.35;8.05;;;;;;;;;;5065952;28;20045;-53
2020/12/09 01:45:29;;;;;;;21.13;8.85;;;;;;;;;;5080784;28;20040;-56
2020/12/09 01:47:55;;;;;;;21.38;8.82;;;;;;;;;;5067272;28;20037;-55
2020/12/09 01:50:21;;;;;;;23.38;8.85;;;;;;;;;;5059960;28;20049;-58
2020/12/09 01:52:47;;;;;;;18.70;8.60;;;;;;;;;;5056039;28;20045;-59
2020/12/09 01:55:13;;;;;;;19.13;8.13;;;;;;;;;;5061726;28;20036;-57
2020/12/09 01:57:39;;;;;;;25.00;8.85;;;;;;;;;;5057722;28;20047;-56
2020/12/09 02:00:06;;;;;;;21.30;7.97;;;;;;;;;;5078654;28;20052;-55
2020/12/09 02:02:33;;;;;;;25.50;9.30;;;;;;;;;;5074823;28;20505;-55
2020/12/09 02:04:59;;;;;;;20.48;8.55;;;;;;;;;;5059643;28;20045;-57
2020/12/09 02:07:27;;;;;;;23.05;7.93;;;;;;;;;;5077842;28;20113;-56
2020/12/09 02:09:58;;;;;;;17.83;7.60;;;;;;;;;;5058378;28;20068;-57
2020/12/09 02:12:24;;;;;;;21.00;7.60;;;;;;;;;;5061391;28;20040;-61
2020/12/09 02:14:50;;;;;;;22.25;8.75;;;;;;;;;;5076754;28;20128;-59
2020/12/09 02:17:16;;;;;;;22.38;8.77;;;;;;;;;;5081084;28;20060;-55
2020/12/09 02:19:45;;;;;;;18.58;8.15;;;;;;;;;;5064545;28;20085;-61
2020/12/09 02:22:12;;;;;;;21.17;8.90;;;;;;;;;;5059268;28;20057;-58
2020/12/09 02:24:38;;;;;;;19.90;8.27;;;;;;;;;;5059695;28;20041;-55
2020/12/09 02:27:04;;;;;;;24.95;8.98;;;;;;;;;;5060037;28;20090;-57
2020/12/09 02:29:35;;;;;;;19.52;8.27;;;;;;;;;;5064588;28;20108;-55
2020/12/09 02:32:01;;;;;;;22.88;8.40;;;;;;;;;;5080103;28;20105;-57
2020/12/09 02:34:27;;;;;;;24.15;8.57;;;;;;;;;;5058534;28;20041;-58
2020/12/09 02:36:53;;;;;;;18.73;7.82;;;;;;;;;;5082943;28;20032;-54
2020/12/09 02:39:26;;;;;;;19.25;7.55;;;;;;;;;;5074582;28;20049;-58
2020/12/09 02:41:52;;;;;;;23.13;8.43;;;;;;;;;;5060702;28;20076;-59
2020/12/09 02:44:18;;;;;;;17.85;7.20;;;;;;;;;;5057810;28;20064;-58
2020/12/09 02:46:44;;;;;;;21.67;9.25;;;;;;;;;;5062349;28;20059;-56
2020/12/09 02:49:10;;;;;;;18.27;8.63;;;;;;;;;;5074801;28;20046;-61
2020/12/09 02:51:36;;;;;;;20.05;8.38;;;;;;;;;;5081335;28;20084;-59
2020/12/09 02:54:02;;;;;;;19.45;8.90;;;;;;;;;;5081871;28;20041;-60
2020/12/09 02:56:29;;;;;;;19.10;8.40;;;;;;;;;;5077315;28;20032;-54
2020/12/09 02:58:55;;;;;;;22.30;8.60;;;;;;;;;;5080595;28;20055;-56
2020/12/09 03:01:22;;;;;;;20.35;8.05;;;;;;;;;;5076638;28;20054;-56
2020/12/09 03:03:49;;;;;;;20.67;9.20;;;;;;;;;;5081116;28;20113;-57
2020/12/09 03:06:14;;;;;;;19.55;8.27;;;;;;;;;;5075892;28;20040;-61
2020/12/09 03:08:40;;;;;;;19.15;8.27;;;;;;;;;;5082853;28;20398;-54
2020/12/09 03:11:06;;;;;;;21.77;9.15;;;;;;;;;;5070011;28;20048;-56
2020/12/09 03:13:33;;;;;;;22.33;8.95;;;;;;;;;;5073225;28;21694;-58
2020/12/09 03:15:59;;;;;;;19.38;8.30;;;;;;;;;;5066054;28;20065;-58
2020/12/09 03:18:25;;;;;;;19.17;8.82;;;;;;;;;;5081197;28;20044;-61
2020/12/09 03:20:51;;;;;;;21.42;9.43;;;;;;;;;;5073690;28;20106;-55
2020/12/09 03:23:17;;;;;;;21.65;9.23;;;;;;;;;;5079412;28;20044;-57
2020/12/09 03:25:43;;;;;;;21.70;8.82;;;;;;;;;;5078199;28;20040;-61
2020/12/09 03:28:09;;;;;;;22.65;8.63;;;;;;;;;;5078630;28;20048;-62
2020/12/09 03:30:36;;;;;;;24.48;9.23;;;;;;;;;;5061890;28;20048;-57
2020/12/09 03:33:02;;;;;;;23.75;9.32;;;;;;;;;;5057830;28;20048;-58
2020/12/09 03:35:28;;;;;;;22.73;9.60;;;;;;;;;;5067063;28;20044;-60
2020/12/09 03:37:54;;;;;;;24.45;9.95;;;;;;;;;;5049926;28;20326;-53
2020/12/09 03:40:21;;;;;;;26.10;10.88;;;;;;;;;;5042732;28;20060;-54
2020/12/09 03:42:47;;;;;;;30.05;11.20;;;;;;;;;;5043238;28;20048;-53
2020/12/09 03:45:16;;;;;;;31.20;11.70;;;;;;;;;;5046549;28;20045;-61
2020/12/09 03:47:43;;;;;;;29.27;11.25;;;;;;;;;;5039304;28;20033;-56
2020/12/09 03:50:09;;;;;;;38.58;13.07;;;;;;;;;;5040530;28;20408;-54
2020/12/09 03:52:36;;;;;;;31.40;12.43;;;;;;;;;;5039164;28;20070;-57
2020/12/09 03:55:02;;;;;;;31.08;12.38;;;;;;;;;;5041587;28;20055;-56
2020/12/09 03:57:28;;;;;;;37.88;12.05;;;;;;;;;;5039354;28;20048;-54
2020/12/09 03:59:56;;;;;;;38.28;13.98;;;;;;;;;;5057683;28;20118;-52
2020/12/09 04:02:22;;;;;;;37.75;14.20;;;;;;;;;;5043598;28;20040;-58
2020/12/09 04:04:49;;;;;;;37.97;13.65;;;;;;;;;;5065402;28;20058;-59
2020/12/09 04:07:15;;;;;;;35.40;13.32;;;;;;;;;;5056865;28;20056;-60
2020/12/09 04:09:41;;;;;;;36.65;13.15;;;;;;;;;;5059876;28;20047;-56
2020/12/09 04:12:07;;;;;;;31.65;12.65;;;;;;;;;;5072854;28;20048;-56
2020/12/09 04:14:33;;;;;;;33.22;13.13;;;;;;;;;;5061975;28;20043;-54
2020/12/09 04:16:59;;;;;;;31.70;12.27;;;;;;;;;;5064420;28;20032;-59
2020/12/09 04:19:25;;;;;;;34.85;13.30;;;;;;;;;;5061610;28;20062;-59
2020/12/09 04:21:52;;;;;;;38.95;12.93;;;;;;;;;;5064831;28;20526;-61
2020/12/09 04:24:18;;;;;;;36.22;14.13;;;;;;;;;;5073512;28;20044;-60
2020/12/09 04:26:44;;;;;;;36.25;13.50;;;;;;;;;;5083892;28;20042;-59
2020/12/09 04:29:11;;;;;;;36.35;13.50;;;;;;;;;;5071249;28;20048;-59
2020/12/09 04:31:38;;;;;;;37.55;13.50;;;;;;;;;;5063930;28;20047;-54
2020/12/09 04:34:05;;;;;;;33.33;14.10;;;;;;;;;;5062036;28;20055;-61
2020/12/09 04:36:32;;;;;;;33.50;13.40;;;;;;;;;;5064854;28;20044;-59
2020/12/09 04:38:59;;;;;;;38.13;14.30;;;;;;;;;;5062590;28;20055;-54
2020/12/09 04:41:25;;;;;;;37.55;12.85;;;;;;;;;;5064487;28;20093;-57
2020/12/09 04:43:51;;;;;;;36.40;13.82;;;;;;;;;;5079706;28;20106;-56
2020/12/09 04:46:17;;;;;;;38.63;12.68;;;;;;;;;;5079447;28;20087;-57
2020/12/09 04:48:53;;;;;;;40.55;14.48;;;;;;;;;;5063266;28;20084;-60
2020/12/09 04:51:37;;;;;;;36.47;14.52;;;;;;;;;;5079808;28;20040;-57
2020/12/09 04:54:12;;;;;;;40.10;15.00;;;;;;;;;;5079631;28;20040;-61
2020/12/09 04:56:39;;;;;;;41.10;14.63;;;;;;;;;;5084521;28;20036;-58
2020/12/09 04:59:15;;;;;;;41.13;14.75;;;;;;;;;;5080391;28;20047;-58
2020/12/09 05:01:58;;;;;;;45.35;14.93;;;;;;;;;;5071530;28;20047;-55
2020/12/09 05:04:25;;;;;;;40.50;14.73;;;;;;;;;;5059901;28;20047;-53
2020/12/09 05:06:51;;;;;;;42.13;14.75;;;;;;;;;;5059774;28;20073;-55
2020/12/09 05:09:27;;;;;;;37.85;14.77;;;;;;;;;;5064785;28;20478;-52
2020/12/09 05:11:59;;;;;;;38.47;14.13;;;;;;;;;;5059240;28;20044;-52
2020/12/09 05:14:25;;;;;;;47.30;14.98;;;;;;;;;;5062614;28;20041;-57
2020/12/09 05:16:57;;;;;;;45.42;15.32;;;;;;;;;;5072078;28;20545;-56
2020/12/09 05:19:23;;;;;;;39.75;14.70;;;;;;;;;;5080803;28;20033;-57
2020/12/09 05:21:50;;;;;;;45.10;16.17;;;;;;;;;;5060681;28;20142;-60
2020/12/09 05:24:18;;;;;;;46.33;15.85;;;;;;;;;;5061405;28;20041;-60
2020/12/09 05:26:45;;;;;;;48.70;16.45;;;;;;;;;;5068898;28;20222;-56
2020/12/09 05:29:16;;;;;;;40.03;13.40;;;;;;;;;;5079275;28;20037;-54
2020/12/09 05:31:42;;;;;;;46.63;15.10;;;;;;;;;;5056599;28;20070;-54
2020/12/09 05:34:24;;;;;;;44.30;16.15;;;;;;;;;;5058824;28;20118;-58
2020/12/09 05:36:50;;;;;;;41.25;14.32;;;;;;;;;;5067419;28;20056;-58
2020/12/09 05:39:17;;;;;;;31.85;12.13;;;;;;;;;;5078808;28;20044;-57
2020/12/09 05:41:43;;;;;;;38.60;13.48;;;;;;;;;;5068457;28;20045;-58
2020/12/09 05:44:10;;;;;;;38.58;13.63;;;;;;;;;;5059745;28;20118;-55
2020/12/09 05:46:53;;;;;;;41.35;14.02;;;;;;;;;;5059070;28;20086;-60
2020/12/09 05:49:20;;;;;;;37.03;12.95;;;;;;;;;;5075870;28;20033;-58
2020/12/09 05:52:02;;;;;;;38.67;12.98;;;;;;;;;;5056458;28;20051;-60
2020/12/09 05:54:28;;;;;;;38.97;13.27;;;;;;;;;;5060902;28;20061;-57
2020/12/09 05:56:55;;;;;;;36.42;12.00;;;;;;;;;;5056635;28;20075;-61
2020/12/09 05:59:31;;;;;;;33.63;12.13;;;;;;;;;;5059850;28;20085;-60
2020/12/09 06:02:05;;;;;;;39.67;11.82;;;;;;;;;;5057195;28;20044;-61
2020/12/09 06:04:42;;;;;;;38.20;12.95;;;;;;;;;;5077172;28;20103;-60
2020/12/09 06:07:09;;;;;;;35.22;11.98;;;;;;;;;;5059337;28;20152;-61
2020/12/09 06:09:37;;;;;;;40.72;12.80;;;;;;;;;;5077462;28;20048;-55
2020/12/09 06:12:03;;;;;;;48.92;13.77;;;;;;;;;;5058451;28;20041;-54
2020/12/09 06:14:29;;;;;;;33.38;11.52;;;;;;;;;;5082137;28;20050;-58
2020/12/09 06:16:56;;;;;;;40.10;12.95;;;;;;;;;;5081548;28;20048;-57
2020/12/09 06:19:23;;;;;;;32.80;10.63;;;;;;;;;;5078845;28;20048;-61
2020/12/09 06:21:53;;;;;;;34.72;11.43;;;;;;;;;;5081606;28;20133;-59
2020/12/09 06:24:19;;;;;;;39.00;13.02;;;;;;;;;;5080429;28;20055;-54
2020/12/09 06:26:48;;;;;;;43.03;14.60;;;;;;;;;;5082020;28;20036;-53
2020/12/09 06:29:21;;;;;;;35.08;12.82;;;;;;;;;;5076745;28;20044;-56
2020/12/09 06:31:57;;;;;;;30.67;11.30;;;;;;;;;;5083136;28;20046;-54
2020/12/09 06:34:24;;;;;;;31.88;12.68;;;;;;;;;;5065544;28;20036;-57
2020/12/09 06:37:09;;;;;;;26.17;10.60;;;;;;;;;;5066652;28;20471;-56
2020/12/09 06:39:36;;;;;;;24.23;10.20;;;;;;;;;;5062285;28;20040;-57
2020/12/09 06:42:06;;;;;;;26.70;10.15;;;;;;;;;;5062147;28;20132;-53
2020/12/09 06:44:33;;;;;;;23.98;9.80;;;;;;;;;;5058223;28;20053;-56
2020/12/09 06:46:59;;;;;;;27.42;9.27;;;;;;;;;;5061309;28;20048;-58
2020/12/09 06:49:38;;;;;;;30.65;11.13;;;;;;;;;;5059586;28;20063;-55
2020/12/09 06:52:25;;;;;;;26.73;9.02;;;;;;;;;;5062613;28;20036;-54
2020/12/09 06:54:51;;;;;;;25.73;9.18;;;;;;;;;;5057370;28;20040;-54
2020/12/09 06:57:17;;;;;;;24.00;8.43;;;;;;;;;;5062928;28;20076;-60
2020/12/09 06:59:44;;;;;;;27.25;10.15;;;;;;;;;;5058219;28;20043;-60
2020/12/09 07:02:10;;;;;;;17.52;7.47;;;;;;;;;;5061049;28;20045;-58
2020/12/09 07:04:54;;;;;;;26.55;7.38;;;;;;;;;;5059132;28;20068;-59
2020/12/09 07:07:27;;;;;;;20.80;6.65;;;;;;;;;;5059386;28;20121;-56
2020/12/09 07:09:53;;;;;;;20.20;7.85;;;;;;;;;;5058261;28;20301;-56
2020/12/09 07:12:20;;;;;;;20.80;7.93;;;;;;;;;;5063283;28;20040;-58
2020/12/09 07:14:49;;;;;;;21.73;8.45;;;;;;;;;;5063550;28;20052;-58
2020/12/09 07:17:15;;;;;;;21.70;7.80;;;;;;;;;;5080901;28;20040;-59
2020/12/09 07:19:44;;;;;;;28.98;10.07;;;;;;;;;;5080752;28;20041;-59
2020/12/09 07:22:11;;;;;;;21.65;7.97;;;;;;;;;;5059430;28;20044;-52
2020/12/09 07:24:37;;;;;;;21.65;8.05;;;;;;;;;;5078150;28;20033;-55
2020/12/09 07:27:03;;;;;;;19.33;7.32;;;;;;;;;;5057381;28;20117;-61
2020/12/09 07:29:31;;;;;;;26.58;9.05;;;;;;;;;;5052706;28;20048;-55
2020/12/09 07:32:00;;;;;;;24.42;8.98;;;;;;;;;;5060298;28;20043;-59
2020/12/09 07:34:27;;;;;;;28.65;11.02;;;;;;;;;;5061606;28;20125;-57
2020/12/09 07:36:55;;;;;;;23.45;8.98;;;;;;;;;;5065603;28;20060;-61
2020/12/09 07:39:28;;;;;;;24.58;8.93;;;;;;;;;;5071943;28;20052;-59
2020/12/09 07:41:56;;;;;;;23.52;8.48;;;;;;;;;;5067809;28;20067;-61
2020/12/09 07:44:22;;;;;;;19.70;7.50;;;;;;;;;;5070311;28;20079;-60
2020/12/09 07:46:55;;;;;;;19.90;8.27;;;;;;;;;;5063798;28;20106;-55
2020/12/09 07:49:21;;;;;;;22.45;7.80;;;;;;;;;;5069943;28;20389;-53
2020/12/09 07:51:48;;;;;;;20.55;7.63;;;;;;;;;;5064394;28;20130;-56
2020/12/09 07:54:14;;;;;;;21.55;7.88;;;;;;;;;;5072611;28;20055;-55
2020/12/09 07:56:40;;;;;;;21.83;8.32;;;;;;;;;;5066012;28;20102;-55
2020/12/09 07:59:07;;;;;;;22.30;9.05;;;;;;;;;;5071961;28;20046;-59
2020/12/09 08:01:33;;;;;;;25.08;9.40;;;;;;;;;;5068145;28;20103;-60
2020/12/09 08:03:59;;;;;;;19.77;7.88;;;;;;;;;;5071116;28;20056;-62
2020/12/09 08:06:25;;;;;;;21.20;8.32;;;;;;;;;;5072506;28;20033;-60
2020/12/09 08:08:52;;;;;;;21.55;7.43;;;;;;;;;;5064328;28;20041;-58
2020/12/09 08:11:18;;;;;;;26.92;9.50;;;;;;;;;;5059603;28;20084;-59
2020/12/09 08:13:45;;;;;;;21.42;7.43;;;;;;;;;;5059773;28;20061;-61
2020/12/09 08:16:12;;;;;;;25.23;9.30;;;;;;;;;;5066274;28;20040;-61
2020/12/09 08:18:42;;;;;;;26.75;9.43;;;;;;;;;;5077841;28;20036;-60
2020/12/09 08:21:27;;;;;;;21.05;8.50;;;;;;;;;;5072533;28;20033;-55
2020/12/09 08:23:55;;;;;;;24.65;8.52;;;;;;;;;;5053869;28;20028;-57
2020/12/09 08:26:29;;;;;;;22.40;8.70;;;;;;;;;;5061051;28;20088;-57
2020/12/09 08:28:55;;;;;;;21.30;7.88;;;;;;;;;;5056900;28;20130;-56
2020/12/09 08:31:22;;;;;;;23.20;8.70;;;;;;;;;;5060859;28;20036;-56
2020/12/09 08:33:50;;;;;;;20.58;8.18;;;;;;;;;;5055930;28;20048;-54
2020/12/09 08:36:17;;;;;;;22.92;9.35;;;;;;;;;;5061132;28;20056;-57
2020/12/09 08:38:44;;;;;;;24.52;9.75;;;;;;;;;;5060082;28;20539;-57
2020/12/09 08:47:19;;;;;;;27.60;9.25;;;;;;;;;;5062380;28;20036;-57
2020/12/09 08:49:50;;;;;;;28.38;11.07;;;;;;;;;;5070563;28;20045;-59
2020/12/09 08:52:16;;;;;;;28.35;10.82;;;;;;;;;;5079442;28;20037;-54
2020/12/09 08:54:42;;;;;;;29.48;10.00;;;;;;;;;;5065666;28;20045;-60
2020/12/09 08:57:08;;;;;;;25.63;10.13;;;;;;;;;;5061017;28;20037;-59
2020/12/09 08:59:41;;;;;;;26.08;9.70;;;;;;;;;;5048084;28;20040;-59
2020/12/09 09:08:11;;;;;;;22.50;9.07;;;;;;;;;;5056201;28;20045;-54
2020/12/09 09:10:38;;;;;;;22.35;8.55;;;;;;;;;;5055648;28;20036;-56
2020/12/09 09:13:04;;;;;;;25.33;9.45;;;;;;;;;;5060147;28;20551;-56
2020/12/09 09:15:35;;;;;;;25.65;9.63;;;;;;;;;;5068331;28;20047;-53
2020/12/09 09:21:06;;;;;;;28.55;10.18;;;;;;;;;;5064757;28;20121;-56
2020/12/09 09:26:34;;;;;;;27.27;10.57;;;;;;;;;;5055128;28;20037;-57
2020/12/09 09:29:02;;;;;;;26.48;9.55;;;;;;;;;;5058206;28;20055;-58
2020/12/09 09:31:28;;;;;;;27.48;10.60;;;;;;;;;;5068522;28;20045;-58
2020/12/09 09:33:56;;;;;;;31.40;11.30;;;;;;;;;;5063458;28;20065;-58
2020/12/09 09:36:22;;;;;;;;;;;;;;;;;;5055980;28;20052;-57
2020/12/09 09:38:51;;;;;;;30.15;10.50;;;;;;;;;;5058581;28;19956;-55
2020/12/09 09:41:17;;;;;;;24.77;9.13;;;;;;;;;;5060461;28;20044;-57
2020/12/09 09:43:43;;;;;;;22.63;9.57;;;;;;;;;;5060123;28;20029;-60
2020/12/09 09:52:17;;;;;;;24.67;9.00;;;;;;;;;;5071631;28;20029;-60
2020/12/09 09:58:02;;;;;;;22.83;9.10;;;;;;;;;;5061934;28;20048;-59
2020/12/09 10:00:28;;;;;;;22.67;8.32;;;;;;;;;;5060797;28;20044;-62
2020/12/09 10:02:55;;;;;;;21.52;9.02;;;;;;;;;;5074951;28;20044;-60
2020/12/09 10:05:24;;;;;;;26.05;10.18;;;;;;;;;;5082805;28;20060;-56
2020/12/09 10:07:50;;;;;;;;;;;;;;;;;;5064074;28;20060;-58
2020/12/09 10:10:16;;;;;;;21.80;8.25;;;;;;;;;;5062316;28;19925;-55
2020/12/09 10:12:44;;;;;;;24.25;8.95;;;;;;;;;;5051297;28;20036;-54
2020/12/09 10:15:15;;;;;;;25.45;8.82;;;;;;;;;;5063389;28;20045;-58
2020/12/09 10:17:41;;;;;;;24.63;8.93;;;;;;;;;;5059221;28;20040;-56
2020/12/09 10:20:08;;;;;;;28.58;9.23;;;;;;;;;;5062750;28;20041;-54
2020/12/09 10:22:34;;;;;;;26.83;9.18;;;;;;;;;;5059276;28;20052;-60
2020/12/09 10:25:03;;;;;;;28.30;9.93;;;;;;;;;;5062487;28;20051;-59
2020/12/09 10:27:29;;;;;;;29.42;9.52;;;;;;;;;;5064014;28;20037;-57
2020/12/09 10:29:56;;;;;;;24.10;9.70;;;;;;;;;;5063342;28;20044;-59
2020/12/09 10:32:26;;;;;;;23.20;9.05;;;;;;;;;;5072894;28;20076;-59
2020/12/09 10:34:52;;;;;;;23.45;8.88;;;;;;;;;;5062649;28;20065;-54
2020/12/09 10:37:19;;;;;;;29.05;9.45;;;;;;;;;;5038611;28;20093;-57
2020/12/09 10:39:46;;;;;;;32.67;10.52;;;;;;;;;;5078099;28;20045;-55
2020/12/09 10:42:12;;;;;;;25.50;9.95;;;;;;;;;;5063347;28;20048;-58
2020/12/09 10:44:38;;;;;;;24.92;10.57;;;;;;;;;;5059722;28;20032;-58
2020/12/09 10:50:11;;;;;;;24.90;9.30;;;;;;;;;;5046886;28;20036;-58
2020/12/09 10:52:40;;;;;;;20.77;6.57;;;;;;;;;;5052584;28;20052;-57
2020/12/09 10:55:07;;;;;;;26.30;9.18;;;;;;;;;;5044013;28;20045;-58
2020/12/09 10:57:36;;;;;;;23.02;8.40;;;;;;;;;;5053140;28;20056;-50
2020/12/09 11:00:05;;;;;;;;;;;;;;;;;;5059527;28;20052;-59
2020/12/09 11:02:31;;;;;;;29.02;9.30;;;;;;;;;;5060416;28;19922;-57
2020/12/09 11:05:00;;;;;;;27.95;10.10;;;;;;;;;;5057684;28;20040;-56
2020/12/09 11:07:29;;;;;;;25.52;9.15;;;;;;;;;;5051345;28;20041;-57
2020/12/09 11:09:55;;;;;;;24.38;8.75;;;;;;;;;;5069592;28;20054;-57
2020/12/09 11:12:24;;;;;;;26.00;8.90;;;;;;;;;;5074061;28;20114;-57
2020/12/09 11:14:52;;;;;;;26.75;9.52;;;;;;;;;;5069250;28;20055;-57
2020/12/09 11:17:23;;;;;;;20.10;6.57;;;;;;;;;;5080558;28;20071;-56
2020/12/09 11:20:00;;;;;;;25.30;7.90;;;;;;;;;;5063048;28;20035;-54
2020/12/09 11:22:33;;;;;;;31.42;8.77;;;;;;;;;;5080977;28;20093;-56
2020/12/09 11:24:59;;;;;;;28.25;9.05;;;;;;;;;;5078315;28;20032;-57
2020/12/09 11:27:27;;;;;;;25.90;8.95;;;;;;;;;;5072324;28;20113;-59
2020/12/09 11:29:54;;;;;;;30.48;10.32;;;;;;;;;;5056366;28;20028;-59
2020/12/09 11:32:23;;;;;;;23.35;7.88;;;;;;;;;;5062589;28;20134;-57
2020/12/09 11:34:49;;;;;;;;;;;;;;;;;;5062119;28;20075;-55
2020/12/09 11:37:18;;;;;;;25.23;6.85;;;;;;;;;;5062792;28;20359;-56
2020/12/09 11:39:44;;;;;;;;;;;;;;;;;;5071334;28;20032;-56
2020/12/09 11:42:11;;;;;;;28.88;8.57;;;;;;;;;;5075419;28;19921;-59
2020/12/09 11:44:37;;;;;;;27.13;8.73;;;;;;;;;;5061588;28;20033;-58
2020/12/09 11:47:04;;;;;;;31.52;10.10;;;;;;;;;;5074883;28;20039;-57
2020/12/09 11:49:34;;;;;;;29.27;9.77;;;;;;;;;;5081492;28;20048;-61
2020/12/09 11:52:00;;;;;;;25.08;8.68;;;;;;;;;;5062045;28;20058;-58
2020/12/09 11:54:26;;;;;;;32.50;10.55;;;;;;;;;;5062071;28;20043;-62
2020/12/09 11:56:52;;;;;;;27.33;8.88;;;;;;;;;;5057994;28;20033;-62
2020/12/09 11:59:19;;;;;;;28.33;8.90;;;;;;;;;;5066665;28;20051;-58
2020/12/09 12:01:46;;;;;;;36.58;10.70;;;;;;;;;;5072034;28;20044;-57
2020/12/09 12:04:12;;;;;;;32.08;9.88;;;;;;;;;;5064027;28;20048;-59
2020/12/09 12:06:38;;;;;;;34.75;10.63;;;;;;;;;;5068740;28;20050;-55
2020/12/09 12:09:05;;;;;;;34.28;10.80;;;;;;;;;;5085323;28;20051;-61
2020/12/09 12:11:31;;;;;;;27.33;8.05;;;;;;;;;;5068903;28;20043;-59
2020/12/09 12:13:57;;;;;;;27.23;8.73;;;;;;;;;;5087633;28;20048;-60
2020/12/09 12:16:24;;;;;;;32.53;10.20;;;;;;;;;;5078467;28;20084;-58
2020/12/09 12:18:54;;;;;;;38.88;11.32;;;;;;;;;;5064877;28;20133;-55
2020/12/09 12:21:25;;;;;;;30.00;9.43;;;;;;;;;;5063802;28;20044;-61
2020/12/09 12:23:51;;;;;;;33.65;10.00;;;;;;;;;;5083411;28;20047;-57
2020/12/09 12:26:18;;;;;;;37.50;10.82;;;;;;;;;;5084754;28;20051;-59
2020/12/09 12:28:44;;;;;;;35.70;11.25;;;;;;;;;;5074467;28;20399;-54
2020/12/09 12:31:11;;;;;;;35.05;9.85;;;;;;;;;;5080951;28;20048;-58
2020/12/09 12:33:38;;;;;;;35.20;11.27;;;;;;;;;;5065957;28;20162;-52
2020/12/09 12:36:04;;;;;;;33.30;11.48;;;;;;;;;;5081906;28;20036;-59
2020/12/09 12:38:30;;;;;;;18.38;6.10;;;;;;;;;;5062695;28;20043;-54
2020/12/09 12:40:56;;;;;;;32.85;8.80;;;;;;;;;;5063901;28;20587;-51
2020/12/09 12:43:22;;;;;;;38.38;11.55;;;;;;;;;;5080563;28;20048;-53
2020/12/09 12:45:48;;;;;;;34.00;11.02;;;;;;;;;;5065411;28;20083;-56
2020/12/09 12:48:14;;;;;;;37.65;11.20;;;;;;;;;;5063015;28;20052;-56
2020/12/09 12:50:42;;;;;;;32.95;10.73;;;;;;;;;;5081317;28;20040;-56
2020/12/09 12:53:08;;;;;;;34.88;11.55;;;;;;;;;;5076136;28;20072;-58
2020/12/09 12:55:35;;;;;;;37.35;11.48;;;;;;;;;;5083344;28;20150;-54
2020/12/09 12:58:01;;;;;;;27.67;8.35;;;;;;;;;;5061429;28;20098;-59
2020/12/09 13:00:27;;;;;;;31.88;9.65;;;;;;;;;;5063222;28;20057;-58
2020/12/09 13:02:53;;;;;;;28.85;8.68;;;;;;;;;;5063936;28;20048;-59
2020/12/09 13:05:19;;;;;;;31.27;10.68;;;;;;;;;;5099064;28;20047;-61
2020/12/09 13:07:47;;;;;;;28.92;9.73;;;;;;;;;;5082329;28;20068;-58
2020/12/09 13:10:14;;;;;;;29.80;10.25;;;;;;;;;;5062291;28;20063;-56
2020/12/09 13:12:39;;;;;;;31.00;10.50;;;;;;;;;;5062022;28;20036;-58
2020/12/09 13:15:06;;;;;;;32.05;10.40;;;;;;;;;;5069610;28;20050;-59
2020/12/09 13:17:31;;;;;;;32.25;10.50;;;;;;;;;;5079234;28;20121;-54
2020/12/09 13:19:58;;;;;;;33.97;9.77;;;;;;;;;;5069127;28;20036;-58
2020/12/09 13:22:24;;;;;;;35.38;11.48;;;;;;;;;;5062635;28;20110;-59
2020/12/09 13:24:51;;;;;;;40.00;12.60;;;;;;;;;;5067275;28;20084;-58
2020/12/09 13:27:17;;;;;;;34.22;11.27;;;;;;;;;;5083642;28;20044;-55
2020/12/09 13:29:45;;;;;;;41.75;12.80;;;;;;;;;;5071083;28;20051;-57
2020/12/09 13:32:11;;;;;;;40.13;12.20;;;;;;;;;;5079134;28;20064;-53
2020/12/09 13:34:37;;;;;;;40.58;12.35;;;;;;;;;;5082004;28;20048;-57
2020/12/09 13:37:03;;;;;;;40.60;12.82;;;;;;;;;;5086649;28;20040;-55
2020/12/09 13:39:30;;;;;;;42.60;12.85;;;;;;;;;;5101864;28;20076;-57
2020/12/09 13:41:57;;;;;;;38.63;12.82;;;;;;;;;;5084850;28;20512;-58
2020/12/09 13:44:23;;;;;;;50.60;13.80;;;;;;;;;;5054949;28;20137;-59
2020/12/09 13:46:49;;;;;;;39.00;13.18;;;;;;;;;;5079562;28;20343;-62
2020/12/09 13:52:18;;;;;;;41.35;12.98;;;;;;;;;;5080048;28;20073;-59
2020/12/09 13:54:44;;;;;;;44.20;14.23;;;;;;;;;;5083020;28;20048;-60
2020/12/09 13:57:11;;;;;;;49.83;14.63;;;;;;;;;;5077329;28;20068;-58
2020/12/09 13:59:37;;;;;;;44.78;14.48;;;;;;;;;;5078698;28;20329;-58
2020/12/09 14:02:03;;;;;;;40.22;12.38;;;;;;;;;;5076295;28;20109;-55
2020/12/09 14:04:29;;;;;;;48.58;12.85;;;;;;;;;;5080789;28;20040;-58
2020/12/09 14:07:00;;;;;;;46.58;13.25;;;;;;;;;;5059203;28;20136;-60
2020/12/09 14:09:27;;;;;;;44.15;14.00;;;;;;;;;;5062861;28;20060;-59
2020/12/09 14:11:53;;;;;;;38.40;12.45;;;;;;;;;;5063969;28;20040;-56
2020/12/09 14:14:20;;;;;;;43.28;12.95;;;;;;;;;;5080127;28;20036;-56
2020/12/09 14:16:48;;;;;;;34.58;11.82;;;;;;;;;;5071615;28;20052;-54
2020/12/09 14:19:17;;;;;;;35.60;10.90;;;;;;;;;;5061697;28;20514;-57
2020/12/09 14:21:44;;;;;;;40.20;12.00;;;;;;;;;;5059539;28;20040;-57
2020/12/09 14:24:10;;;;;;;37.95;11.73;;;;;;;;;;5061479;28;20048;-53
2020/12/09 14:26:36;;;;;;;34.10;11.48;;;;;;;;;;5079715;28;20118;-55
2020/12/09 14:29:03;;;;;;;22.83;7.20;;;;;;;;;;5083244;28;20056;-56
2020/12/09 14:31:30;;;;;;;31.67;9.50;;;;;;;;;;5101353;28;20044;-57
2020/12/09 14:33:56;;;;;;;34.70;9.80;;;;;;;;;;5102546;28;20050;-55
2020/12/09 14:36:24;;;;;;;25.80;8.70;;;;;;;;;;5085098;28;20040;-55
2020/12/09 14:38:51;;;;;;;29.02;10.10;;;;;;;;;;5099504;28;20460;-58
2020/12/09 14:41:17;;;;;;;28.20;8.95;;;;;;;;;;5082130;28;20048;-58
2020/12/09 14:43:45;;;;;;;29.83;9.38;;;;;;;;;;5078883;28;20048;-55
2020/12/09 14:46:12;;;;;;;26.88;9.20;;;;;;;;;;5082864;28;20044;-56
2020/12/09 14:48:40;;;;;;;31.02;11.10;;;;;;;;;;5092567;28;20052;-61
2020/12/09 14:51:09;;;;;;;30.60;9.93;;;;;;;;;;5085932;28;20064;-55
2020/12/09 14:53:36;;;;;;;35.55;11.55;;;;;;;;;;5089686;28;20340;-56
2020/12/09 14:56:02;;;;;;;28.67;9.02;;;;;;;;;;5065726;28;20080;-57
2020/12/09 14:58:28;;;;;;;32.90;11.50;;;;;;;;;;5081772;28;20051;-56
2020/12/09 15:00:54;;;;;;;28.88;10.50;;;;;;;;;;5065695;28;20060;-55